createdAt,value
2023-03-08T00:00:22.624Z,62.60
2023-03-08T00:02:52.177Z,62.50
2023-03-08T00:05:22.173Z,63.85
2023-03-08T00:07:54.398Z,61.20
2023-03-08T00:10:24.988Z,61.78
2023-03-08T00:12:54.580Z,65.65
2023-03-08T00:15:24.306Z,65.63
2023-03-08T00:17:53.980Z,66.47
2023-03-08T00:20:23.589Z,65.25
2023-03-08T00:22:53.176Z,66.15
2023-03-08T00:25:23.382Z,65.70
2023-03-08T00:27:53.177Z,63.70
2023-03-08T00:30:22.800Z,63.90
2023-03-08T00:32:52.523Z,62.55
2023-03-08T00:35:22.373Z,62.42
2023-03-08T00:37:51.987Z,63.45
2023-03-08T00:40:21.671Z,65.07
2023-03-08T00:42:51.249Z,66.35
2023-03-08T00:45:20.820Z,66.13
2023-03-08T00:47:50.431Z,62.97
2023-03-08T00:50:20.198Z,65.40
2023-03-08T00:52:49.701Z,64.53
2023-03-08T00:55:19.413Z,61.53
2023-03-08T00:57:48.936Z,63.95
2023-03-08T01:00:19.136Z,63.25
2023-03-08T01:02:48.812Z,66.50
2023-03-08T01:05:18.397Z,66.50
2023-03-08T01:07:47.916Z,65.90
2023-03-08T01:10:17.751Z,63.45
2023-03-08T01:12:47.392Z,66.07
2023-03-08T01:15:17.137Z,64.20
2023-03-08T01:17:46.732Z,62.60
2023-03-08T01:20:16.463Z,63.15
2023-03-08T01:22:46.070Z,65.55
2023-03-08T01:25:16.155Z,63.30
2023-03-08T01:27:48.929Z,61.50
2023-03-08T01:30:19.172Z,61.95
2023-03-08T01:32:48.787Z,62.85
2023-03-08T01:35:18.493Z,63.88
2023-03-08T01:37:48.423Z,60.50
2023-03-08T01:40:18.362Z,62.17
2023-03-08T01:42:47.987Z,66.57
2023-03-08T01:45:56.732Z,64.43
2023-03-08T01:48:32.458Z,64.95
2023-03-08T01:51:04.773Z,62.85
2023-03-08T01:53:36.973Z,63.03
2023-03-08T01:56:12.073Z,63.42
2023-03-08T01:58:45.725Z,61.92
2023-03-08T02:01:15.684Z,61.60
2023-03-08T02:03:46.654Z,62.35
2023-03-08T02:06:17.847Z,61.92
2023-03-08T02:08:47.445Z,62.05
2023-03-08T02:11:19.391Z,63.80
2023-03-08T02:13:50.124Z,64.47
2023-03-08T02:16:21.894Z,66.63
2023-03-08T02:18:55.222Z,67.60
2023-03-08T02:21:25.699Z,67.20
2023-03-08T02:23:55.776Z,63.65
2023-03-08T02:26:25.711Z,64.40
2023-03-08T02:28:56.183Z,71.00
2023-03-08T02:31:26.032Z,66.40
2023-03-08T02:33:55.683Z,67.72
2023-03-08T02:36:25.488Z,70.57
2023-03-08T02:38:55.131Z,68.72
2023-03-08T02:41:24.776Z,68.55
2023-03-08T02:43:54.468Z,66.22
2023-03-08T02:46:24.008Z,62.65
2023-03-08T02:48:54.523Z,64.05
2023-03-08T02:51:24.247Z,64.03
2023-03-08T02:53:53.923Z,65.28
2023-03-08T02:56:24.050Z,63.42
2023-03-08T02:58:53.787Z,60.08
2023-03-08T03:01:23.410Z,62.80
2023-03-08T03:03:55.597Z,64.53
2023-03-08T03:06:25.383Z,61.80
2023-03-08T03:08:55.041Z,63.80
2023-03-08T03:11:25.722Z,61.90
2023-03-08T03:14:00.937Z,61.95
2023-03-08T03:16:31.347Z,60.60
2023-03-08T03:19:02.229Z,61.40
2023-03-08T03:21:31.802Z,59.38
2023-03-08T03:24:01.444Z,60.63
2023-03-08T03:26:31.216Z,58.80
2023-03-08T03:29:02.442Z,57.55
2023-03-08T03:31:32.758Z,54.90
2023-03-08T03:34:03.546Z,56.50
2023-03-08T03:36:33.232Z,57.17
2023-03-08T03:39:02.774Z,57.10
2023-03-08T03:41:32.419Z,53.22
2023-03-08T03:44:01.996Z,54.53
2023-03-08T03:46:31.846Z,54.35
2023-03-08T03:49:01.648Z,55.72
2023-03-08T03:51:31.402Z,51.75
2023-03-08T03:54:01.149Z,53.65
2023-03-08T03:56:31.100Z,51.45
2023-03-08T03:59:00.841Z,49.97
2023-03-08T04:01:32.550Z,49.30
2023-03-08T04:04:02.601Z,50.10
2023-03-08T04:06:34.445Z,49.72
2023-03-08T04:09:07.725Z,48.97
2023-03-08T04:11:40.862Z,47.55
2023-03-08T04:14:10.963Z,49.35
2023-03-08T04:16:42.308Z,47.63
2023-03-08T04:19:15.016Z,46.28
2023-03-08T04:21:44.907Z,46.75
2023-03-08T04:24:14.538Z,45.88
2023-03-08T04:26:44.141Z,45.05
2023-03-08T04:29:14.475Z,46.75
2023-03-08T04:31:44.408Z,46.08
2023-03-08T04:34:14.006Z,44.47
2023-03-08T04:36:43.674Z,42.72
2023-03-08T04:39:13.228Z,44.45
2023-03-08T04:41:42.811Z,43.80
2023-03-08T04:44:12.582Z,42.60
2023-03-08T04:46:42.232Z,42.33
2023-03-08T04:49:11.830Z,43.83
2023-03-08T04:51:41.625Z,43.58
2023-03-08T04:54:11.188Z,42.10
2023-03-08T04:56:40.745Z,43.00
2023-03-08T04:59:10.383Z,42.38
2023-03-08T05:01:40.040Z,43.70
2023-03-08T05:04:11.819Z,43.90
2023-03-08T05:06:41.589Z,42.85
2023-03-08T05:09:11.280Z,43.63
2023-03-08T05:11:40.921Z,44.47
2023-03-08T05:14:12.118Z,43.67
2023-03-08T05:16:41.851Z,43.15
2023-03-08T05:19:11.618Z,43.50
2023-03-08T05:21:41.303Z,44.75
2023-03-08T05:24:11.244Z,42.95
2023-03-08T05:26:41.578Z,43.78
2023-03-08T05:29:11.255Z,42.42
2023-03-08T05:31:41.857Z,43.05
2023-03-08T05:34:13.201Z,42.60
2023-03-08T05:36:44.453Z,45.33
2023-03-08T05:39:14.147Z,43.72
2023-03-08T05:41:43.769Z,42.13
2023-03-08T05:44:13.541Z,43.97
2023-03-08T05:46:43.265Z,43.10
2023-03-08T05:49:12.889Z,41.72
2023-03-08T05:51:42.587Z,44.90
2023-03-08T05:54:12.384Z,44.30
2023-03-08T05:56:41.947Z,43.13
2023-03-08T05:59:11.610Z,40.78
2023-03-08T06:01:41.360Z,41.83
2023-03-08T06:04:10.895Z,43.47
2023-03-08T06:06:40.620Z,41.65
2023-03-08T06:09:10.264Z,44.72
2023-03-08T06:11:39.899Z,42.90
2023-03-08T06:14:10.638Z,40.40
2023-03-08T06:16:41.841Z,42.78
2023-03-08T06:19:11.558Z,42.58
2023-03-08T06:21:41.219Z,42.65
2023-03-08T06:24:11.015Z,42.40
2023-03-08T06:26:40.684Z,43.55
2023-03-08T06:29:10.304Z,41.50
2023-03-08T06:31:39.920Z,42.05
2023-03-08T06:34:09.552Z,41.13
2023-03-08T06:36:39.162Z,43.67
2023-03-08T06:39:08.870Z,43.30
2023-03-08T06:41:38.714Z,43.00
2023-03-08T06:44:08.443Z,43.00
2023-03-08T06:46:38.106Z,42.97
2023-03-08T06:49:09.607Z,41.92
2023-03-08T06:51:39.401Z,41.17
2023-03-08T06:54:09.054Z,42.00
2023-03-08T06:56:38.706Z,42.75
2023-03-08T06:59:08.260Z,41.72
2023-03-08T07:01:37.898Z,42.45
2023-03-08T07:04:08.044Z,45.45
2023-03-08T07:06:37.783Z,43.15
2023-03-08T07:09:07.487Z,45.10
2023-03-08T07:11:37.212Z,42.17
2023-03-08T07:14:06.860Z,42.85
2023-03-08T07:16:36.615Z,41.72
2023-03-08T07:19:06.379Z,42.30
2023-03-08T07:21:36.038Z,43.00
2023-03-08T07:24:05.795Z,44.28
2023-03-08T07:26:35.545Z,43.65
2023-03-08T07:29:05.230Z,41.75
2023-03-08T07:31:37.829Z,42.58
2023-03-08T07:34:07.630Z,41.00
2023-03-08T07:36:37.262Z,41.80
2023-03-08T07:39:07.000Z,41.00
2023-03-08T07:41:37.409Z,42.17
2023-03-08T07:44:07.254Z,43.78
2023-03-08T07:46:37.062Z,42.50
2023-03-08T07:49:12.164Z,43.95
2023-03-08T07:51:41.794Z,43.50
2023-03-08T07:54:14.723Z,43.35
2023-03-08T07:56:44.383Z,44.60
2023-03-08T07:59:14.193Z,45.28
2023-03-08T08:01:43.793Z,43.38
2023-03-08T08:04:14.247Z,43.03
2023-03-08T08:06:44.185Z,41.78
2023-03-08T08:09:16.568Z,42.22
2023-03-08T08:11:46.481Z,42.17
2023-03-08T08:14:16.092Z,40.05
2023-03-08T08:16:45.789Z,39.92
2023-03-08T08:19:16.461Z,43.03
2023-03-08T08:21:46.094Z,41.75
2023-03-08T08:24:15.742Z,41.38
2023-03-08T08:26:45.447Z,39.28
2023-03-08T08:29:15.302Z,40.53
2023-03-08T08:31:44.964Z,41.92
2023-03-08T08:34:14.683Z,41.15
2023-03-08T08:36:44.285Z,40.85
2023-03-08T08:39:13.982Z,40.85
2023-03-08T08:41:43.685Z,40.35
2023-03-08T08:44:13.293Z,42.22
2023-03-08T08:46:43.007Z,39.55
2023-03-08T08:49:13.402Z,39.92
2023-03-08T08:51:43.359Z,39.10
2023-03-08T08:54:13.129Z,41.13
2023-03-08T08:56:44.647Z,40.40
2023-03-08T08:59:15.261Z,39.95
2023-03-08T09:01:48.724Z,42.38
2023-03-08T09:04:22.511Z,41.38
2023-03-08T09:06:52.480Z,41.75
2023-03-08T09:09:22.605Z,42.10
2023-03-08T09:11:55.463Z,41.22
2023-03-08T09:14:25.792Z,41.63
2023-03-08T09:16:55.570Z,40.45
2023-03-08T09:19:25.216Z,38.40
2023-03-08T09:21:55.096Z,41.45
2023-03-08T09:24:24.705Z,42.22
2023-03-08T09:26:54.345Z,40.78
2023-03-08T09:29:24.108Z,41.28
2023-03-08T09:31:57.128Z,41.17
2023-03-08T09:34:28.270Z,42.00
2023-03-08T09:36:57.998Z,40.67
2023-03-08T09:39:29.095Z,40.47
2023-03-08T09:42:04.065Z,39.15
2023-03-08T09:45:04.467Z,38.55
2023-03-08T09:48:01.817Z,39.60
2023-03-08T09:50:56.767Z,41.30
2023-03-08T09:53:52.198Z,38.67
2023-03-08T09:56:39.805Z,37.20
2023-03-08T10:02:16.203Z,40.60
2023-03-08T10:05:18.437Z,37.38
2023-03-08T10:08:19.396Z,37.45
2023-03-08T10:11:17.283Z,37.80
2023-03-08T10:13:56.098Z,37.92
2023-03-08T10:16:34.031Z,37.65
2023-03-08T10:19:30.526Z,36.42
2023-03-08T10:22:03.548Z,39.08
2023-03-08T10:24:47.391Z,37.30
2023-03-08T10:27:36.578Z,37.42
2023-03-08T10:30:17.728Z,37.67
2023-03-08T10:32:50.544Z,37.28
2023-03-08T10:35:32.117Z,37.05
2023-03-08T10:38:01.865Z,37.03
2023-03-08T10:40:31.546Z,40.70
2023-03-08T10:43:07.321Z,38.38
2023-03-08T10:45:37.125Z,38.90
2023-03-08T10:48:08.523Z,39.33
2023-03-08T10:50:39.738Z,38.60
2023-03-08T10:53:21.889Z,38.72
2023-03-08T10:55:54.443Z,37.85
2023-03-08T10:58:43.736Z,38.22
2023-03-08T11:01:34.394Z,37.42
2023-03-08T11:04:25.195Z,38.33
2023-03-08T11:06:55.036Z,36.53
2023-03-08T11:09:35.283Z,36.13
2023-03-08T11:12:05.014Z,38.25
2023-03-08T11:14:34.751Z,36.67
2023-03-08T11:17:22.887Z,38.22
2023-03-08T11:20:23.347Z,37.58
2023-03-08T11:23:24.123Z,38.20
2023-03-08T11:26:06.315Z,41.03
2023-03-08T11:29:07.862Z,42.17
2023-03-08T11:31:50.555Z,43.97
2023-03-08T11:34:48.758Z,41.58
2023-03-08T11:37:44.797Z,40.63
2023-03-08T11:40:53.505Z,42.28
2023-03-08T11:43:49.820Z,42.90
2023-03-08T11:46:44.688Z,42.13
2023-03-08T11:49:39.331Z,43.63
2023-03-08T11:52:48.873Z,43.50
2023-03-08T11:55:58.222Z,43.90
2023-03-08T11:58:57.364Z,42.22
2023-03-08T12:01:52.179Z,42.53
2023-03-08T12:04:29.107Z,43.47
2023-03-08T12:07:01.998Z,44.97
2023-03-08T12:09:52.685Z,43.05
2023-03-08T12:12:51.508Z,41.08
2023-03-08T12:16:00.337Z,43.47
2023-03-08T12:19:02.917Z,45.78
2023-03-08T12:21:45.561Z,45.03
2023-03-08T12:24:43.098Z,44.08
2023-03-08T12:30:06.309Z,42.90
2023-03-08T12:32:40.292Z,42.88
2023-03-08T12:35:30.184Z,42.67
2023-03-08T12:38:11.943Z,42.80
2023-03-08T12:40:48.895Z,41.03
2023-03-08T12:43:35.131Z,43.33
2023-03-08T12:46:10.964Z,42.53
2023-03-08T12:48:52.654Z,45.90
2023-03-08T12:51:35.720Z,46.70
2023-03-08T12:54:07.461Z,49.60
2023-03-08T12:57:01.418Z,47.55
2023-03-08T12:59:38.605Z,50.17
2023-03-08T13:02:32.413Z,53.50
2023-03-08T13:05:23.543Z,56.95
2023-03-08T13:08:04.201Z,55.80
2023-03-08T13:10:39.004Z,55.13
2023-03-08T13:13:39.196Z,55.95
2023-03-08T13:16:43.020Z,54.92
2023-03-08T13:19:28.191Z,53.97
2023-03-08T13:22:27.043Z,53.83
2023-03-08T13:25:09.228Z,52.55
2023-03-08T13:27:55.130Z,49.97
2023-03-08T13:30:36.637Z,52.28
2023-03-08T13:33:15.389Z,51.25
2023-03-08T13:35:45.116Z,52.20
2023-03-08T13:38:24.867Z,48.20
2023-03-08T13:40:56.539Z,50.75
2023-03-08T13:43:28.538Z,50.15
2023-03-08T13:46:01.647Z,52.50
2023-03-08T13:48:34.796Z,50.83
2023-03-08T13:51:05.479Z,52.05
2023-03-08T13:53:38.103Z,53.78
2023-03-08T13:56:08.982Z,54.88
2023-03-08T13:58:43.761Z,57.33
2023-03-08T14:01:16.885Z,62.05
2023-03-08T14:03:47.809Z,65.95
2023-03-08T14:06:32.832Z,59.75
2023-03-08T14:09:05.259Z,64.65
2023-03-08T14:11:38.452Z,63.33
2023-03-08T14:14:17.016Z,64.10
2023-03-08T14:16:46.807Z,66.53
2023-03-08T14:19:37.511Z,68.95
2023-03-08T14:22:25.630Z,69.38
2023-03-08T14:25:04.133Z,66.80
2023-03-08T14:27:41.300Z,63.22
2023-03-08T14:30:23.463Z,63.60
2023-03-08T14:33:30.659Z,62.08
2023-03-08T14:36:06.740Z,60.92
2023-03-08T14:38:37.669Z,65.82
2023-03-08T14:41:08.099Z,64.60
2023-03-08T14:43:38.750Z,63.20
2023-03-08T14:46:10.964Z,64.32
2023-03-08T14:48:41.431Z,63.25
2023-03-08T14:51:32.836Z,61.47
2023-03-08T14:54:07.417Z,62.50
2023-03-08T14:56:37.395Z,59.58
2023-03-08T14:59:10.367Z,59.75
2023-03-08T15:01:42.507Z,61.72
2023-03-08T15:04:31.792Z,61.58
2023-03-08T15:07:01.565Z,60.30
2023-03-08T15:09:31.741Z,59.22
2023-03-08T15:12:02.601Z,58.53
2023-03-08T15:14:32.387Z,58.47
2023-03-08T15:17:02.055Z,61.17
2023-03-08T15:19:31.810Z,63.63
2023-03-08T15:22:03.270Z,62.10
2023-03-08T15:24:33.065Z,61.70
2023-03-08T15:27:02.622Z,61.78
2023-03-08T15:29:34.874Z,61.40
2023-03-08T15:32:04.587Z,59.30
2023-03-08T15:34:34.330Z,63.15
2023-03-08T15:37:04.008Z,61.35
2023-03-08T15:39:33.600Z,61.17
2023-03-08T15:42:03.248Z,62.58
2023-03-08T15:44:33.129Z,63.80
2023-03-08T15:47:03.424Z,66.72
2023-03-08T15:49:33.108Z,62.08
2023-03-08T15:52:02.765Z,66.68
2023-03-08T15:54:33.464Z,61.20
2023-03-08T15:57:03.118Z,59.88
2023-03-08T15:59:32.824Z,59.45
2023-03-08T16:02:02.911Z,61.65
2023-03-08T16:04:32.536Z,62.75
2023-03-08T16:07:02.293Z,62.47
2023-03-08T16:09:31.925Z,63.05
2023-03-08T16:12:02.142Z,62.60
2023-03-08T16:14:32.336Z,61.80
2023-03-08T16:17:02.161Z,62.20
2023-03-08T16:19:38.395Z,61.95
2023-03-08T16:22:08.236Z,64.18
2023-03-08T16:24:38.166Z,62.03
2023-03-08T16:27:07.958Z,64.80
2023-03-08T16:29:37.822Z,66.35
2023-03-08T16:32:07.916Z,64.07
2023-03-08T16:34:37.812Z,63.28
2023-03-08T16:37:07.545Z,67.57
2023-03-08T16:39:37.267Z,65.95
2023-03-08T16:42:07.104Z,65.25
2023-03-08T16:44:36.757Z,65.82
2023-03-08T16:47:06.562Z,62.55
2023-03-08T16:49:36.423Z,65.45
2023-03-08T16:52:07.185Z,65.47
2023-03-08T16:54:36.994Z,70.22
2023-03-08T16:57:18.060Z,75.40
2023-03-08T16:59:49.133Z,73.75
2023-03-08T17:02:23.079Z,67.47
2023-03-08T17:04:53.093Z,66.50
2023-03-08T17:07:22.760Z,67.32
2023-03-08T17:09:52.470Z,66.03
2023-03-08T17:12:22.296Z,68.05
2023-03-08T17:14:51.903Z,67.63
2023-03-08T17:17:21.567Z,67.15
2023-03-08T17:19:55.785Z,66.35
2023-03-08T17:22:25.548Z,67.25
2023-03-08T17:24:55.270Z,65.55
2023-03-08T17:27:25.940Z,65.53
2023-03-08T17:29:55.692Z,64.82
2023-03-08T17:32:25.467Z,65.30
2023-03-08T17:34:55.323Z,65.75
2023-03-08T17:37:25.028Z,64.65
2023-03-08T17:39:54.787Z,63.47
2023-03-08T17:42:24.481Z,64.35
2023-03-08T17:44:54.154Z,61.30
2023-03-08T17:47:23.842Z,62.03
2023-03-08T17:49:53.542Z,67.00
2023-03-08T17:52:23.426Z,65.82
2023-03-08T17:54:53.154Z,65.32
2023-03-08T17:57:24.021Z,63.75
2023-03-08T17:59:55.378Z,65.28
2023-03-08T18:02:25.791Z,61.90
2023-03-08T18:04:57.535Z,65.43
2023-03-08T18:07:29.483Z,62.63
2023-03-08T18:09:59.358Z,61.25
2023-03-08T18:12:29.297Z,62.50
2023-03-08T18:14:59.063Z,62.08
2023-03-08T18:17:28.736Z,62.72
2023-03-08T18:19:58.429Z,60.53
2023-03-08T18:22:28.246Z,61.08
2023-03-08T18:24:57.934Z,61.40
2023-03-08T18:27:27.635Z,60.67
2023-03-08T18:29:57.587Z,59.20
2023-03-08T18:32:28.671Z,58.20
2023-03-08T18:34:58.404Z,60.95
2023-03-08T18:37:28.108Z,60.35
2023-03-08T18:39:57.795Z,60.72
2023-03-08T18:42:28.681Z,59.03
2023-03-08T18:44:58.357Z,59.65
2023-03-08T18:47:28.019Z,60.75
2023-03-08T18:49:57.633Z,60.92
2023-03-08T18:52:27.256Z,60.03
2023-03-08T18:54:56.820Z,61.25
2023-03-08T18:57:26.725Z,59.88
2023-03-08T18:59:56.679Z,63.20
2023-03-08T19:02:28.616Z,61.88
2023-03-08T19:04:58.637Z,62.20
2023-03-08T19:07:28.228Z,60.03
2023-03-08T19:09:57.938Z,62.35
2023-03-08T19:12:27.657Z,62.05
2023-03-08T19:14:57.330Z,60.28
2023-03-08T19:17:26.917Z,59.40
2023-03-08T19:19:56.689Z,60.53
2023-03-08T19:22:26.310Z,64.05
2023-03-08T19:24:56.029Z,61.90
2023-03-08T19:27:25.779Z,62.83
2023-03-08T19:29:55.391Z,62.55
2023-03-08T19:32:25.017Z,65.55
2023-03-08T19:34:54.720Z,63.97
2023-03-08T19:37:24.502Z,63.70
2023-03-08T19:39:54.330Z,62.25
2023-03-08T19:42:24.306Z,64.35
2023-03-08T19:44:54.426Z,64.80
2023-03-08T19:47:24.200Z,64.53
2023-03-08T19:49:54.049Z,64.05
2023-03-08T19:52:23.728Z,64.07
2023-03-08T19:54:53.426Z,67.93
2023-03-08T19:57:23.202Z,65.30
2023-03-08T19:59:52.917Z,66.30
2023-03-08T20:02:22.958Z,69.20
2023-03-08T20:04:53.230Z,76.70
2023-03-08T20:07:22.965Z,78.57
2023-03-08T20:09:56.494Z,98.22
2023-03-08T20:12:27.084Z,110.82
2023-03-08T20:14:56.918Z,111.70
2023-03-08T20:17:26.598Z,103.25
2023-03-08T20:19:56.213Z,102.03
2023-03-08T20:22:25.968Z,91.55
2023-03-08T20:24:55.792Z,92.43
2023-03-08T20:27:25.404Z,92.13
2023-03-08T20:29:55.560Z,92.68
2023-03-08T20:32:25.362Z,91.35
2023-03-08T20:34:55.086Z,88.53
2023-03-08T20:37:24.967Z,84.82
2023-03-08T20:39:55.850Z,81.47
2023-03-08T20:42:25.521Z,80.20
2023-03-08T20:44:55.230Z,76.93
2023-03-08T20:47:24.904Z,75.60
2023-03-08T20:49:54.707Z,72.28
2023-03-08T20:52:24.566Z,75.97
2023-03-08T20:54:54.347Z,79.97
2023-03-08T20:57:24.694Z,86.82
2023-03-08T20:59:54.385Z,82.70
2023-03-08T21:02:27.383Z,81.95
2023-03-08T21:04:59.429Z,80.90
2023-03-08T21:07:29.218Z,80.75
2023-03-08T21:09:58.974Z,78.35
2023-03-08T21:12:28.683Z,81.53
2023-03-08T21:14:58.355Z,78.10
2023-03-08T21:17:28.116Z,73.47
2023-03-08T21:19:57.830Z,75.45
2023-03-08T21:22:27.429Z,78.32
2023-03-08T21:24:57.014Z,76.65
2023-03-08T21:27:26.754Z,78.93
2023-03-08T21:29:57.936Z,91.32
2023-03-08T21:32:28.047Z,97.53
2023-03-08T21:34:57.800Z,93.57
2023-03-08T21:37:27.610Z,118.55
2023-03-08T21:39:57.497Z,122.53
2023-03-08T21:42:27.165Z,129.75
2023-03-08T21:44:56.868Z,126.07
2023-03-08T21:47:26.542Z,125.85
2023-03-08T21:49:56.210Z,118.38
2023-03-08T21:52:25.949Z,115.50
2023-03-08T21:54:55.717Z,113.00
2023-03-08T21:57:25.362Z,95.78
2023-03-08T21:59:55.031Z,93.10
2023-03-08T22:02:24.808Z,94.03
2023-03-08T22:04:55.106Z,96.38
2023-03-08T22:07:25.235Z,89.68
2023-03-08T22:09:54.942Z,83.72
2023-03-08T22:12:24.635Z,77.38
2023-03-08T22:14:54.329Z,69.90
2023-03-08T22:17:24.090Z,66.95
2023-03-08T22:19:54.006Z,69.22
2023-03-08T22:22:23.656Z,70.63
2023-03-08T22:24:53.390Z,69.65
2023-03-08T22:27:24.738Z,67.75
2023-03-08T22:29:54.516Z,60.47
2023-03-08T22:32:24.829Z,60.80
2023-03-08T22:34:54.553Z,63.50
2023-03-08T22:37:25.378Z,61.85
2023-03-08T22:39:55.001Z,59.67
2023-03-08T22:42:24.708Z,60.83
2023-03-08T22:44:54.624Z,59.72
2023-03-08T22:47:24.267Z,58.97
2023-03-08T22:49:53.999Z,59.17
2023-03-08T22:52:23.770Z,59.47
2023-03-08T22:54:53.515Z,78.15
2023-03-08T22:57:23.722Z,91.97
2023-03-08T23:00:00.714Z,81.53
2023-03-08T23:02:32.108Z,84.97
2023-03-08T23:05:02.126Z,76.25
2023-03-08T23:07:32.335Z,68.35
2023-03-08T23:10:01.980Z,76.97
2023-03-08T23:12:31.695Z,87.22
2023-03-08T23:15:01.690Z,97.22
2023-03-08T23:17:31.472Z,84.53
2023-03-08T23:20:01.223Z,82.45
2023-03-08T23:22:30.861Z,78.18
2023-03-08T23:25:00.669Z,69.75
2023-03-08T23:27:30.342Z,65.03
2023-03-08T23:29:59.982Z,72.13
2023-03-08T23:32:29.820Z,76.25
2023-03-08T23:34:59.846Z,77.75
2023-03-08T23:37:29.532Z,71.20
2023-03-08T23:39:59.453Z,75.65
2023-03-08T23:42:29.192Z,78.72
2023-03-08T23:44:58.802Z,80.13
2023-03-08T23:47:28.418Z,76.78
2023-03-08T23:49:58.242Z,76.50
2023-03-08T23:52:27.934Z,73.40
2023-03-08T23:54:57.658Z,74.35
2023-03-08T23:57:27.374Z,79.30
2023-03-08T23:59:57.005Z,86.43
